Latest Weather Observations for Beerburrum

IDQ60801

Issued at 10:52 pm EST Friday 15 November 2019 (issued every 10 minutes, with the page automatically refreshed every 10 minutes)

About weather observations | Map of weather stations | Latest weather observations for QLD | Other Formats
Station Details ID: 040284 Name: BEERBURRUM FOREST STATION Lat: -26.96 Lon: 152.96 Height: 48.0 m
Data from the previous 72 hours. | See also: Recent months at Beerburrum
Date/Time
EST
Temp
°C
App
Temp
°C
Dew
Point
°C
Rel
Hum
%
Delta-T
°C
Wind Press
QNH
hPa
Press
MSL
hPa
Rain since
9am
mm
Dir  Spd
km/h
Gust
km/h
Spd
kts
Gust
kts
15/10:30pm 23.1 24.8 15.2 61 4.7 CALM 0 7 0 4 - - 0.0
15/10:00pm 24.7 24.7 15.3 56 5.7 N 9 15 5 8 - - 0.0
15/09:30pm 24.7 25.0 15.9 58 5.4 N 9 15 5 8 - - 0.0
15/09:00pm 24.2 24.8 15.9 59 5.0 N 7 13 4 7 - - 0.0
15/08:30pm 23.8 24.5 15.6 60 5.0 NNE 6 13 3 7 - - 0.0
15/08:00pm 24.8 25.1 16.0 58 5.4 N 9 17 5 9 - - 0.0
15/07:30pm 25.0 25.6 16.7 60 5.1 N 9 13 5 7 - - 0.0
15/07:00pm 25.1 26.6 18.1 65 4.4 NE 7 19 4 10 - - 0.0
15/06:30pm 25.6 26.9 18.5 65 4.5 NNE 9 15 5 8 - - 0.0
15/06:00pm 25.9 27.3 18.6 64 4.7 NNE 9 15 5 8 - - 0.0
15/05:30pm 26.7 27.3 18.6 61 5.2 NNE 13 20 7 11 - - 0.0
15/05:00pm 27.2 27.2 18.2 58 5.7 NNE 15 26 8 14 - - 0.0
15/04:30pm 28.0 27.9 18.7 57 6.0 NNE 17 28 9 15 - - 0.0
15/04:00pm 28.9 29.0 18.4 53 6.7 NNE 15 33 8 18 - - 0.0
15/03:30pm 29.5 30.0 18.3 51 7.2 NNE 13 30 7 16 - - 0.0
15/03:00pm 30.1 31.0 18.5 49 7.5 NE 11 24 6 13 - - 0.0
15/02:30pm 29.8 29.6 17.6 48 7.8 NE 15 28 8 15 - - 0.0
15/02:00pm 31.1 32.7 19.1 48 7.8 E 9 19 5 10 - - 0.0
15/01:30pm 31.0 32.0 18.7 48 8.0 ENE 11 22 6 12 - - 0.0
15/01:00pm 29.8 30.7 18.3 50 7.4 E 11 20 6 11 - - 0.0
15/12:30pm 31.1 31.7 17.8 45 8.5 NE 11 20 6 11 - - 0.0
15/12:00pm 30.9 30.5 15.3 38 9.6 NNE 11 22 6 12 - - 0.0
15/11:30am 31.2 30.7 16.0 40 9.5 N 13 22 7 12 - - 0.0
15/11:00am 30.1 29.2 15.8 42 8.9 N 15 20 8 11 - - 0.0
15/10:30am 29.6 29.2 16.1 44 8.4 N 13 22 7 12 - - 0.0
15/10:00am 28.5 29.1 16.7 48 7.4 N 9 22 5 12 - - 0.0
15/09:30am 27.1 27.4 17.0 54 6.3 N 11 17 6 9 - - 0.0
15/09:00am 26.0 26.2 16.8 57 5.7 N 11 17 6 9 - - 0.0
15/08:30am 26.3 28.1 18.4 61 5.0 NE 6 9 3 5 - - 0.0
15/08:00am 24.9 26.3 17.4 63 4.7 NNE 6 11 3 6 - - 0.0
15/07:30am 23.8 26.9 18.7 73 3.2 CALM 0 4 0 2 - - 0.0
15/07:00am 22.1 25.3 18.9 82 2.0 CALM 0 0 0 0 - - 0.0
15/06:30am 20.9 23.8 18.3 85 1.6 CALM 0 0 0 0 - - 0.0
15/06:00am 19.0 21.4 17.1 89 1.2 CALM 0 0 0 0 - - 0.0
15/05:30am 18.2 20.3 16.2 88 1.2 CALM 0 0 0 0 - - 0.0
15/05:00am 18.1 20.0 15.7 86 1.4 CALM 0 0 0 0 - - 0.0
15/04:30am 18.5 20.5 16.1 86 1.4 CALM 0 0 0 0 - - 0.0
15/04:00am 18.9 21.1 16.5 86 1.4 CALM 0 0 0 0 - - 0.0
15/03:30am 19.4 21.6 16.6 84 1.7 CALM 0 0 0 0 - - 0.0
15/03:00am 20.1 22.4 16.7 81 2.1 CALM 0 0 0 0 - - 0.0
15/02:30am 20.8 23.3 17.2 80 2.2 CALM 0 0 0 0 - - 0.0
15/02:00am 21.2 23.9 17.8 81 2.1 CALM 0 0 0 0 - - 0.0
15/01:30am 21.1 23.7 17.5 80 2.2 CALM 0 0 0 0 - - 0.0
15/01:00am 20.9 23.5 17.5 81 2.1 CALM 0 0 0 0 - - 0.0
15/12:30am 20.7 23.3 17.5 82 2.0 CALM 0 0 0 0 - - 0.0
15/12:00am 20.3 22.8 17.3 83 1.8 CALM 0 0 0 0 - - 0.0
 
Date/Time
EST
Temp
°C
App
Temp
°C
Dew
Point
°C
Rel
Hum
%
Delta-T
°C
Wind Press
QNH
hPa
Press
MSL
hPa
Rain since
9am
mm
Dir  Spd
km/h
Gust
km/h
Spd
kts
Gust
kts
14/11:30pm 20.4 22.8 17.0 81 2.1 CALM 0 0 0 0 - - 0.0
14/11:00pm 20.9 23.3 17.1 79 2.3 CALM 0 0 0 0 - - 0.0
14/10:30pm 21.1 23.6 17.3 79 2.3 CALM 0 0 0 0 - - 0.0
14/10:00pm 20.9 23.4 17.3 80 2.2 CALM 0 0 0 0 - - 0.0
14/09:30pm 20.8 23.4 17.6 82 2.0 CALM 0 0 0 0 - - 0.0
14/09:00pm 20.2 22.4 16.6 80 2.2 CALM 0 0 0 0 - - 0.0
14/08:30pm 20.7 22.8 17.1 80 2.2 NNE 2 7 1 4 - - 0.0
14/08:00pm 20.9 23.3 17.1 79 2.3 CALM 0 0 0 0 - - 0.0
14/07:30pm 21.0 23.3 16.8 77 2.6 CALM 0 0 0 0 - - 0.0
14/07:00pm 21.2 23.4 16.6 75 2.8 CALM 0 6 0 3 - - 0.0
14/06:30pm 21.8 23.2 16.3 71 3.3 NE 4 7 2 4 - - 0.0
14/06:00pm 22.6 23.4 15.9 66 4.0 NE 6 15 3 8 - - 0.0
14/05:30pm 23.5 23.8 15.0 59 5.1 NE 7 13 4 7 - - 0.0
14/05:00pm 24.7 24.6 13.9 51 6.4 ENE 7 13 4 7 - - 0.0
14/04:30pm 25.5 25.1 13.0 46 7.3 E 7 19 4 10 - - 0.0
14/04:00pm 26.1 24.7 12.2 42 8.0 ENE 11 17 6 9 - - 0.0
14/03:30pm 26.9 26.0 11.4 38 8.9 E 7 17 4 9 - - 0.0
14/03:00pm 27.6 26.2 10.8 35 9.5 ENE 9 17 5 9 - - 0.0
14/02:30pm 27.8 26.7 11.8 37 9.2 ENE 9 15 5 8 - - 0.0
14/02:00pm 27.9 26.7 11.5 36 9.4 E 9 17 5 9 - - 0.0
14/01:30pm 27.5 26.0 10.7 35 9.5 E 9 17 5 9 - - 0.0
14/01:00pm 28.2 26.9 11.3 35 9.7 NE 9 17 5 9 - - 0.0
14/12:30pm 28.3 27.0 11.4 35 9.7 ENE 9 17 5 9 - - 0.0
14/12:00pm 28.2 26.4 10.9 34 9.9 ESE 11 19 6 10 - - 0.0
14/11:30am 27.7 26.2 10.4 34 9.8 NW 9 15 5 8 - - 0.0
14/11:00am 28.4 27.9 12.7 38 9.2 E 7 13 4 7 - - 0.0
14/10:30am 26.7 25.3 10.8 37 9.0 ENE 9 17 5 9 - - 0.0
14/10:00am 25.9 25.0 11.3 40 8.3 E 7 13 4 7 - - 0.0
14/09:30am 25.2 23.9 11.4 42 7.8 SE 9 15 5 8 - - 0.0
14/09:00am 24.3 23.9 12.3 47 6.9 SSW 6 9 3 5 - - 0.0
14/08:30am 23.8 25.0 13.9 54 5.8 CALM 0 0 0 0 - - 0.0
14/08:00am 23.5 23.4 13.4 53 5.9 SSE 6 9 3 5 - - 0.0
14/07:30am 22.8 22.9 14.4 59 5.0 SSE 7 11 4 6 - - 0.0
14/07:00am 22.8 24.1 15.1 62 4.6 SSE 2 9 1 5 - - 0.0
14/06:30am 21.7 22.8 15.5 68 3.7 SW 4 6 2 3 - - 0.0
14/06:00am 19.8 22.1 16.8 83 1.8 CALM 0 0 0 0 - - 0.0
14/05:30am 18.3 20.1 15.6 84 1.6 CALM 0 0 0 0 - - 0.0
14/05:00am 17.9 19.6 15.3 85 1.5 CALM 0 0 0 0 - - 0.0
14/04:30am 17.5 19.2 15.1 86 1.4 CALM 0 0 0 0 - - 0.0
14/04:00am 17.2 18.7 14.7 85 1.4 CALM 0 0 0 0 - - 0.0
14/03:30am 17.5 19.1 14.8 84 1.6 CALM 0 0 0 0 - - 0.0
14/03:00am 18.0 19.7 15.1 83 1.7 CALM 0 0 0 0 - - 0.0
14/02:30am 18.2 19.9 15.1 82 1.8 CALM 0 0 0 0 - - 0.0
14/02:00am 18.9 20.7 15.6 81 2.0 CALM 0 0 0 0 - - 0.0
14/01:30am 18.7 20.4 15.2 80 2.1 CALM 0 0 0 0 - - 0.0
14/01:00am 19.0 20.7 15.3 79 2.2 CALM 0 0 0 0 - - 0.0
14/12:30am 19.6 21.4 15.5 77 2.4 CALM 0 0 0 0 - - 0.0
14/12:00am 19.7 21.4 15.1 75 2.7 CALM 0 6 0 3 - - 0.0
 
Date/Time
EST
Temp
°C
App
Temp
°C
Dew
Point
°C
Rel
Hum
%
Delta-T
°C
Wind Press
QNH
hPa
Press
MSL
hPa
Rain since
9am
mm
Dir  Spd
km/h
Gust
km/h
Spd
kts
Gust
kts
13/11:30pm 20.4 22.2 15.4 73 3.0 CALM 0 0 0 0 - - 0.0
13/11:00pm 21.1 22.6 15.6 71 3.3 SSE 2 7 1 4 - - 0.0
13/10:30pm 21.6 23.1 15.7 69 3.5 SSE 2 7 1 4 - - 0.0
13/10:00pm 21.9 22.8 16.0 69 3.6 SSE 6 11 3 6 - - 0.0
13/09:30pm 22.0 22.9 16.1 69 3.6 S 6 9 3 5 - - 0.0
13/09:00pm 22.1 23.3 15.9 68 3.7 S 4 9 2 5 - - 0.0
13/08:30pm 22.1 22.9 15.9 68 3.7 S 6 11 3 6 - - 0.0
13/08:00pm 22.2 23.0 15.8 67 3.9 SSE 6 11 3 6 - - 0.0
13/07:30pm 22.2 22.7 15.5 66 4.0 S 7 17 4 9 - - 0.0
13/07:00pm 22.2 22.9 15.5 66 4.0 SSE 6 9 3 5 - - 0.0
13/06:30pm 22.4 23.1 15.5 65 4.1 S 6 13 3 7 - - 0.0
13/06:00pm 22.7 22.9 15.8 65 4.2 SSE 9 17 5 9 - - 0.0
13/05:30pm 23.3 23.7 16.4 65 4.2 SSE 9 17 5 9 - - 0.0
13/05:00pm 23.7 24.4 16.2 63 4.6 SSE 7 15 4 8 - - 0.0
13/04:30pm 24.0 24.5 16.5 63 4.6 SE 9 20 5 11 - - 0.0
13/04:00pm 24.3 23.9 16.3 61 4.9 S 13 28 7 15 - - 0.0
13/03:30pm 26.3 26.5 17.6 58 5.5 SSE 13 30 7 16 - - 0.0
13/03:00pm 27.1 26.8 17.3 55 6.2 S 15 28 8 15 - - 0.0
13/02:30pm 28.1 28.1 17.3 52 6.8 S 13 28 7 15 - - 0.0
13/02:00pm 28.5 28.2 16.4 48 7.5 S 13 32 7 17 - - 0.0
13/01:30pm 29.8 29.3 15.9 43 8.6 S 13 28 7 15 - - 0.0
13/01:00pm 33.8 31.1 11.6 26 13.1 SSE 17 32 9 17 - - 0.0
13/12:30pm 34.9 32.2 5.4 16 15.9 NW 9 15 5 8 - - 0.0
13/12:00pm 34.6 31.8 6.8 18 15.3 W 11 20 6 11 - - 0.0
13/11:30am 33.4 31.1 7.4 20 14.4 WSW 9 19 5 10 - - 0.0
13/11:00am 33.3 30.6 7.3 20 14.3 W 11 30 6 16 - - 0.0
13/10:30am 32.4 29.6 8.6 23 13.3 WNW 13 24 7 13 - - 0.0
13/10:00am 31.5 29.1 8.5 24 12.8 W 11 24 6 13 - - 0.0
13/09:30am 31.1 28.2 8.2 24 12.7 WSW 13 33 7 18 - - 0.0
13/09:00am 30.6 27.4 8.3 25 12.3 W 15 30 8 16 - - 0.0
13/08:30am 30.1 27.5 7.9 25 12.2 WNW 11 30 6 16 - - 0.0
13/08:00am 28.5 27.5 10.2 32 10.3 NW 6 9 3 5 - - 0.0
13/07:30am 26.9 25.7 9.7 34 9.5 N 6 11 3 6 - - 0.0
13/07:00am 25.6 24.2 9.4 36 8.9 NNW 7 13 4 7 - - 0.0
13/06:30am 24.6 22.9 8.5 36 8.6 WNW 7 19 4 10 - - 0.0
13/06:00am 23.7 22.5 9.7 41 7.6 W 6 13 3 7 - - 0.0
13/05:30am 22.7 21.6 10.5 46 6.7 NNW 7 20 4 11 - - 0.0
13/05:00am 22.6 21.0 10.1 45 6.8 N 9 19 5 10 - - 0.0
13/04:30am 22.6 21.1 10.4 46 6.7 NW 9 20 5 11 - - 0.0
13/04:00am 22.0 20.7 9.2 44 6.9 WNW 6 13 3 7 - - 0.0
13/03:30am 22.6 21.1 9.0 42 7.3 NNW 7 15 4 8 - - 0.0
13/03:00am 23.1 21.7 9.5 42 7.4 NW 7 15 4 8 - - 0.0
13/02:30am 23.1 21.6 9.1 41 7.5 NNW 7 17 4 9 - - 0.0
13/02:00am 23.5 21.5 8.8 39 7.9 NW 9 17 5 9 - - 0.0
13/01:30am 23.9 22.0 9.1 39 8.0 NW 9 17 5 9 - - 0.0
13/01:00am 24.5 21.3 8.5 36 8.6 NNW 15 28 8 15 - - 0.0
13/12:30am 24.7 21.7 7.8 34 9.0 NNW 13 28 7 15 - - 0.0
13/12:00am 25.2 20.8 7.3 32 9.4 N 20 33 11 18 - - 0.0
 
Date/Time
EST
Temp
°C
App
Temp
°C
Dew
Point
°C
Rel
Hum
%
Delta-T
°C
Wind Press
QNH
hPa
Press
MSL
hPa
Rain since
9am
mm
Dir  Spd
km/h
Gust
km/h
Spd
kts
Gust
kts
12/11:30pm 25.0 21.8 8.5 35 8.9 NNW 15 32 8 17 - - 0.0
12/11:00pm 25.0 22.5 8.1 34 9.0 NNW 11 22 6 12 - - 0.0

Other formats

Comma delimited format used in spreadsheet applications
http://www.bom.gov.au/fwo/IDQ60801/IDQ60801.95566.axf

JavaScript Object Notation format (JSON) in row-major order
http://www.bom.gov.au/fwo/IDQ60801/IDQ60801.95566.json

Data quality

Most of these data are generated automatically and are frequently updated. Quality checks on data are not normally performed. It is possible for incorrect values to appear. Refer to information at About Latest Weather Observations and please check the disclaimer before using these data.